sensor_id;sensor_type;location;lat;lon;timestamp;P1;durP1;ratioP1;P2;durP2;ratioP2
4986;SDS011;12674;51.500;7.552;2024-01-07T00:01:31;14.83;;;9.20;;
4986;SDS011;12674;51.500;7.552;2024-01-07T00:03:36;13.03;;;9.70;;
4986;SDS011;12674;51.500;7.552;2024-01-07T00:05:40;14.43;;;10.17;;
4986;SDS011;12674;51.500;7.552;2024-01-07T00:07:43;14.70;;;9.70;;
4986;SDS011;12674;51.500;7.552;2024-01-07T00:09:46;14.20;;;11.17;;
4986;SDS011;12674;51.500;7.552;2024-01-07T00:11:50;16.63;;;11.20;;
4986;SDS011;12674;51.500;7.552;2024-01-07T00:13:53;19.40;;;12.73;;
4986;SDS011;12674;51.500;7.552;2024-01-07T00:15:56;22.87;;;13.43;;
4986;SDS011;12674;51.500;7.552;2024-01-07T00:17:59;21.63;;;13.77;;
4986;SDS011;12674;51.500;7.552;2024-01-07T00:20:03;22.20;;;15.30;;
4986;SDS011;12674;51.500;7.552;2024-01-07T00:22:07;28.13;;;15.67;;
4986;SDS011;12674;51.500;7.552;2024-01-07T00:24:10;30.50;;;15.60;;
4986;SDS011;12674;51.500;7.552;2024-01-07T00:26:13;30.03;;;17.63;;
4986;SDS011;12674;51.500;7.552;2024-01-07T00:28:16;23.53;;;15.20;;
4986;SDS011;12674;51.500;7.552;2024-01-07T00:30:19;25.33;;;16.77;;
4986;SDS011;12674;51.500;7.552;2024-01-07T00:32:21;24.50;;;15.77;;
4986;SDS011;12674;51.500;7.552;2024-01-07T00:34:24;23.50;;;14.00;;
4986;SDS011;12674;51.500;7.552;2024-01-07T00:36:27;20.50;;;14.17;;
4986;SDS011;12674;51.500;7.552;2024-01-07T00:38:32;19.53;;;13.47;;
4986;SDS011;12674;51.500;7.552;2024-01-07T00:40:35;20.67;;;14.43;;
4986;SDS011;12674;51.500;7.552;2024-01-07T00:42:39;17.40;;;12.70;;
4986;SDS011;12674;51.500;7.552;2024-01-07T00:44:42;15.03;;;10.90;;
4986;SDS011;12674;51.500;7.552;2024-01-07T00:46:45;19.90;;;12.90;;
4986;SDS011;12674;51.500;7.552;2024-01-07T00:48:49;16.63;;;12.03;;
4986;SDS011;12674;51.500;7.552;2024-01-07T00:50:53;20.70;;;12.77;;
4986;SDS011;12674;51.500;7.552;2024-01-07T00:52:57;17.80;;;12.20;;
4986;SDS011;12674;51.500;7.552;2024-01-07T00:55:01;17.30;;;11.40;;
4986;SDS011;12674;51.500;7.552;2024-01-07T00:57:05;21.40;;;14.03;;
4986;SDS011;12674;51.500;7.552;2024-01-07T00:59:08;16.67;;;11.93;;
4986;SDS011;12674;51.500;7.552;2024-01-07T01:01:11;25.00;;;13.47;;
4986;SDS011;12674;51.500;7.552;2024-01-07T01:03:14;17.50;;;12.70;;
4986;SDS011;12674;51.500;7.552;2024-01-07T01:05:17;18.70;;;12.57;;
4986;SDS011;12674;51.500;7.552;2024-01-07T01:07:20;18.50;;;12.77;;
4986;SDS011;12674;51.500;7.552;2024-01-07T01:09:23;22.60;;;14.10;;
4986;SDS011;12674;51.500;7.552;2024-01-07T01:11:27;20.93;;;14.00;;
4986;SDS011;12674;51.500;7.552;2024-01-07T01:13:30;17.47;;;12.73;;
4986;SDS011;12674;51.500;7.552;2024-01-07T01:15:33;19.03;;;13.50;;
4986;SDS011;12674;51.500;7.552;2024-01-07T01:17:36;18.97;;;14.37;;
4986;SDS011;12674;51.500;7.552;2024-01-07T01:19:39;21.50;;;14.27;;
4986;SDS011;12674;51.500;7.552;2024-01-07T01:21:42;20.90;;;14.10;;
4986;SDS011;12674;51.500;7.552;2024-01-07T01:23:46;21.17;;;15.30;;
4986;SDS011;12674;51.500;7.552;2024-01-07T01:25:48;21.53;;;14.90;;
4986;SDS011;12674;51.500;7.552;2024-01-07T01:27:53;21.43;;;14.33;;
4986;SDS011;12674;51.500;7.552;2024-01-07T01:29:56;23.60;;;14.30;;
4986;SDS011;12674;51.500;7.552;2024-01-07T01:31:59;25.97;;;15.03;;
4986;SDS011;12674;51.500;7.552;2024-01-07T01:34:03;22.30;;;16.13;;
4986;SDS011;12674;51.500;7.552;2024-01-07T01:36:07;23.80;;;16.57;;
4986;SDS011;12674;51.500;7.552;2024-01-07T01:38:09;22.00;;;15.60;;
4986;SDS011;12674;51.500;7.552;2024-01-07T01:40:13;22.27;;;15.57;;
4986;SDS011;12674;51.500;7.552;2024-01-07T01:42:16;24.73;;;17.17;;
4986;SDS011;12674;51.500;7.552;2024-01-07T01:44:20;25.07;;;16.90;;
4986;SDS011;12674;51.500;7.552;2024-01-07T01:46:23;25.40;;;15.90;;
4986;SDS011;12674;51.500;7.552;2024-01-07T01:48:27;26.37;;;15.93;;
4986;SDS011;12674;51.500;7.552;2024-01-07T01:50:30;23.60;;;16.10;;
4986;SDS011;12674;51.500;7.552;2024-01-07T01:52:33;24.53;;;15.77;;
4986;SDS011;12674;51.500;7.552;2024-01-07T01:54:37;25.83;;;16.43;;
4986;SDS011;12674;51.500;7.552;2024-01-07T01:56:41;24.50;;;16.03;;
4986;SDS011;12674;51.500;7.552;2024-01-07T01:58:45;22.00;;;15.63;;
4986;SDS011;12674;51.500;7.552;2024-01-07T02:00:50;24.53;;;16.63;;
4986;SDS011;12674;51.500;7.552;2024-01-07T02:02:54;28.07;;;17.33;;
4986;SDS011;12674;51.500;7.552;2024-01-07T02:04:58;21.43;;;15.43;;
4986;SDS011;12674;51.500;7.552;2024-01-07T02:07:01;22.37;;;15.00;;
4986;SDS011;12674;51.500;7.552;2024-01-07T02:09:04;26.57;;;16.23;;
4986;SDS011;12674;51.500;7.552;2024-01-07T02:11:14;22.90;;;15.43;;
4986;SDS011;12674;51.500;7.552;2024-01-07T02:13:18;25.53;;;16.07;;
4986;SDS011;12674;51.500;7.552;2024-01-07T02:15:21;22.97;;;14.93;;
4986;SDS011;12674;51.500;7.552;2024-01-07T02:17:26;20.10;;;14.80;;
4986;SDS011;12674;51.500;7.552;2024-01-07T02:19:29;19.00;;;15.10;;
4986;SDS011;12674;51.500;7.552;2024-01-07T02:21:32;20.60;;;15.10;;
4986;SDS011;12674;51.500;7.552;2024-01-07T02:23:36;23.73;;;15.67;;
4986;SDS011;12674;51.500;7.552;2024-01-07T02:25:39;23.07;;;16.27;;
4986;SDS011;12674;51.500;7.552;2024-01-07T02:27:42;20.83;;;14.53;;
4986;SDS011;12674;51.500;7.552;2024-01-07T02:29:45;20.43;;;15.40;;
4986;SDS011;12674;51.500;7.552;2024-01-07T02:31:48;21.00;;;13.70;;
4986;SDS011;12674;51.500;7.552;2024-01-07T02:33:51;19.37;;;14.43;;
4986;SDS011;12674;51.500;7.552;2024-01-07T02:35:54;17.70;;;14.50;;
4986;SDS011;12674;51.500;7.552;2024-01-07T02:37:58;18.90;;;13.87;;
4986;SDS011;12674;51.500;7.552;2024-01-07T02:40:01;17.00;;;13.87;;
4986;SDS011;12674;51.500;7.552;2024-01-07T02:42:07;21.33;;;14.97;;
4986;SDS011;12674;51.500;7.552;2024-01-07T02:44:10;20.40;;;14.50;;
4986;SDS011;12674;51.500;7.552;2024-01-07T02:46:14;18.70;;;14.03;;
4986;SDS011;12674;51.500;7.552;2024-01-07T02:48:17;18.40;;;14.50;;
4986;SDS011;12674;51.500;7.552;2024-01-07T02:50:20;18.80;;;13.97;;
4986;SDS011;12674;51.500;7.552;2024-01-07T02:52:23;17.93;;;13.27;;
4986;SDS011;12674;51.500;7.552;2024-01-07T02:54:26;19.87;;;14.50;;
4986;SDS011;12674;51.500;7.552;2024-01-07T02:56:29;17.93;;;14.37;;
4986;SDS011;12674;51.500;7.552;2024-01-07T02:58:32;17.00;;;12.80;;
4986;SDS011;12674;51.500;7.552;2024-01-07T03:00:35;17.30;;;13.13;;
4986;SDS011;12674;51.500;7.552;2024-01-07T03:02:38;19.07;;;14.33;;
4986;SDS011;12674;51.500;7.552;2024-01-07T03:04:42;17.90;;;13.97;;
4986;SDS011;12674;51.500;7.552;2024-01-07T03:06:45;17.87;;;13.23;;
4986;SDS011;12674;51.500;7.552;2024-01-07T03:08:49;14.87;;;12.80;;
4986;SDS011;12674;51.500;7.552;2024-01-07T03:10:52;17.93;;;13.20;;
4986;SDS011;12674;51.500;7.552;2024-01-07T03:12:55;16.27;;;12.67;;
4986;SDS011;12674;51.500;7.552;2024-01-07T03:14:59;16.60;;;13.10;;
4986;SDS011;12674;51.500;7.552;2024-01-07T03:17:02;15.77;;;11.93;;
4986;SDS011;12674;51.500;7.552;2024-01-07T03:19:05;15.60;;;12.77;;
4986;SDS011;12674;51.500;7.552;2024-01-07T03:21:15;15.30;;;12.20;;
4986;SDS011;12674;51.500;7.552;2024-01-07T03:23:19;17.00;;;12.80;;
4986;SDS011;12674;51.500;7.552;2024-01-07T03:25:23;14.30;;;11.70;;
4986;SDS011;12674;51.500;7.552;2024-01-07T03:27:27;17.57;;;13.47;;
4986;SDS011;12674;51.500;7.552;2024-01-07T03:29:31;16.60;;;12.63;;
4986;SDS011;12674;51.500;7.552;2024-01-07T03:31:36;17.33;;;13.10;;
4986;SDS011;12674;51.500;7.552;2024-01-07T03:33:39;15.27;;;12.30;;
4986;SDS011;12674;51.500;7.552;2024-01-07T03:35:45;17.70;;;12.70;;
4986;SDS011;12674;51.500;7.552;2024-01-07T03:37:49;15.10;;;11.90;;
4986;SDS011;12674;51.500;7.552;2024-01-07T03:39:55;17.93;;;13.27;;
4986;SDS011;12674;51.500;7.552;2024-01-07T03:41:59;17.37;;;13.00;;
4986;SDS011;12674;51.500;7.552;2024-01-07T03:44:02;17.63;;;12.80;;
4986;SDS011;12674;51.500;7.552;2024-01-07T03:46:15;21.13;;;13.47;;
4986;SDS011;12674;51.500;7.552;2024-01-07T03:48:20;18.57;;;13.57;;
4986;SDS011;12674;51.500;7.552;2024-01-07T03:50:25;18.10;;;13.30;;
4986;SDS011;12674;51.500;7.552;2024-01-07T03:52:28;16.90;;;12.70;;
4986;SDS011;12674;51.500;7.552;2024-01-07T03:54:31;17.97;;;12.93;;
4986;SDS011;12674;51.500;7.552;2024-01-07T03:56:35;16.60;;;12.87;;
4986;SDS011;12674;51.500;7.552;2024-01-07T03:58:38;17.80;;;12.70;;
4986;SDS011;12674;51.500;7.552;2024-01-07T04:00:45;23.77;;;12.50;;
4986;SDS011;12674;51.500;7.552;2024-01-07T04:02:51;17.73;;;12.67;;
4986;SDS011;12674;51.500;7.552;2024-01-07T04:04:56;19.17;;;12.50;;
4986;SDS011;12674;51.500;7.552;2024-01-07T04:06:59;22.27;;;15.03;;
4986;SDS011;12674;51.500;7.552;2024-01-07T04:09:04;17.93;;;14.00;;
4986;SDS011;12674;51.500;7.552;2024-01-07T04:11:08;17.13;;;13.40;;
4986;SDS011;12674;51.500;7.552;2024-01-07T04:13:11;20.13;;;13.77;;
4986;SDS011;12674;51.500;7.552;2024-01-07T04:15:15;16.60;;;13.40;;
4986;SDS011;12674;51.500;7.552;2024-01-07T04:17:18;19.63;;;12.90;;
4986;SDS011;12674;51.500;7.552;2024-01-07T04:19:22;14.40;;;11.40;;
4986;SDS011;12674;51.500;7.552;2024-01-07T04:21:27;17.10;;;12.10;;
4986;SDS011;12674;51.500;7.552;2024-01-07T04:23:30;14.90;;;11.70;;
4986;SDS011;12674;51.500;7.552;2024-01-07T04:25:33;16.37;;;12.87;;
4986;SDS011;12674;51.500;7.552;2024-01-07T04:27:36;17.37;;;13.30;;
4986;SDS011;12674;51.500;7.552;2024-01-07T04:29:39;17.30;;;12.97;;
4986;SDS011;12674;51.500;7.552;2024-01-07T04:31:42;15.50;;;11.47;;
4986;SDS011;12674;51.500;7.552;2024-01-07T04:33:44;19.43;;;13.20;;
4986;SDS011;12674;51.500;7.552;2024-01-07T04:35:48;15.50;;;12.00;;
4986;SDS011;12674;51.500;7.552;2024-01-07T04:37:51;19.47;;;12.27;;
4986;SDS011;12674;51.500;7.552;2024-01-07T04:39:54;16.13;;;11.83;;
4986;SDS011;12674;51.500;7.552;2024-01-07T04:41:56;16.27;;;12.43;;
4986;SDS011;12674;51.500;7.552;2024-01-07T04:43:59;16.90;;;12.73;;
4986;SDS011;12674;51.500;7.552;2024-01-07T04:46:03;18.87;;;13.20;;
4986;SDS011;12674;51.500;7.552;2024-01-07T04:48:05;18.57;;;13.43;;
4986;SDS011;12674;51.500;7.552;2024-01-07T04:50:09;19.60;;;13.57;;
4986;SDS011;12674;51.500;7.552;2024-01-07T04:52:13;15.10;;;12.50;;
4986;SDS011;12674;51.500;7.552;2024-01-07T04:54:16;21.40;;;14.23;;
4986;SDS011;12674;51.500;7.552;2024-01-07T04:56:21;19.30;;;12.63;;
4986;SDS011;12674;51.500;7.552;2024-01-07T04:58:24;18.03;;;12.43;;
4986;SDS011;12674;51.500;7.552;2024-01-07T05:00:27;18.30;;;12.40;;
4986;SDS011;12674;51.500;7.552;2024-01-07T05:02:31;18.80;;;12.80;;
4986;SDS011;12674;51.500;7.552;2024-01-07T05:04:35;16.53;;;11.33;;
4986;SDS011;12674;51.500;7.552;2024-01-07T05:06:37;17.20;;;13.13;;
4986;SDS011;12674;51.500;7.552;2024-01-07T05:08:41;18.03;;;12.43;;
4986;SDS011;12674;51.500;7.552;2024-01-07T05:10:45;17.43;;;12.80;;
4986;SDS011;12674;51.500;7.552;2024-01-07T05:12:48;18.33;;;12.33;;
4986;SDS011;12674;51.500;7.552;2024-01-07T05:14:51;19.40;;;13.60;;
4986;SDS011;12674;51.500;7.552;2024-01-07T05:16:54;17.03;;;12.57;;
4986;SDS011;12674;51.500;7.552;2024-01-07T05:18:57;17.53;;;12.47;;
4986;SDS011;12674;51.500;7.552;2024-01-07T05:21:00;19.90;;;12.93;;
4986;SDS011;12674;51.500;7.552;2024-01-07T05:23:03;17.20;;;12.33;;
4986;SDS011;12674;51.500;7.552;2024-01-07T05:25:06;16.33;;;11.70;;
4986;SDS011;12674;51.500;7.552;2024-01-07T05:27:11;18.23;;;12.80;;
4986;SDS011;12674;51.500;7.552;2024-01-07T05:29:15;19.23;;;12.67;;
4986;SDS011;12674;51.500;7.552;2024-01-07T05:31:18;17.90;;;12.07;;
4986;SDS011;12674;51.500;7.552;2024-01-07T05:33:21;16.90;;;12.70;;
4986;SDS011;12674;51.500;7.552;2024-01-07T05:35:24;17.10;;;12.23;;
4986;SDS011;12674;51.500;7.552;2024-01-07T05:37:28;16.73;;;12.63;;
4986;SDS011;12674;51.500;7.552;2024-01-07T05:39:31;20.27;;;12.77;;
4986;SDS011;12674;51.500;7.552;2024-01-07T05:41:36;17.27;;;13.27;;
4986;SDS011;12674;51.500;7.552;2024-01-07T05:43:40;18.37;;;13.20;;
4986;SDS011;12674;51.500;7.552;2024-01-07T05:45:43;17.13;;;13.00;;
4986;SDS011;12674;51.500;7.552;2024-01-07T05:47:46;14.27;;;11.73;;
4986;SDS011;12674;51.500;7.552;2024-01-07T05:49:50;18.00;;;12.77;;
4986;SDS011;12674;51.500;7.552;2024-01-07T05:51:54;17.47;;;12.50;;
4986;SDS011;12674;51.500;7.552;2024-01-07T05:53:57;19.00;;;13.07;;
4986;SDS011;12674;51.500;7.552;2024-01-07T05:56:00;15.00;;;11.73;;
4986;SDS011;12674;51.500;7.552;2024-01-07T05:58:02;15.70;;;12.50;;
4986;SDS011;12674;51.500;7.552;2024-01-07T06:00:08;21.13;;;13.90;;
4986;SDS011;12674;51.500;7.552;2024-01-07T06:02:13;18.17;;;12.97;;
4986;SDS011;12674;51.500;7.552;2024-01-07T06:04:17;16.60;;;12.90;;
4986;SDS011;12674;51.500;7.552;2024-01-07T06:06:21;18.43;;;12.77;;
4986;SDS011;12674;51.500;7.552;2024-01-07T06:08:24;21.77;;;13.47;;
4986;SDS011;12674;51.500;7.552;2024-01-07T06:10:27;17.80;;;12.53;;
4986;SDS011;12674;51.500;7.552;2024-01-07T06:12:30;19.33;;;13.77;;
4986;SDS011;12674;51.500;7.552;2024-01-07T06:14:33;16.03;;;12.33;;
4986;SDS011;12674;51.500;7.552;2024-01-07T06:16:37;17.50;;;12.30;;
4986;SDS011;12674;51.500;7.552;2024-01-07T06:18:40;16.07;;;12.30;;
4986;SDS011;12674;51.500;7.552;2024-01-07T06:20:44;18.57;;;13.27;;
4986;SDS011;12674;51.500;7.552;2024-01-07T06:22:47;16.87;;;12.33;;
4986;SDS011;12674;51.500;7.552;2024-01-07T06:24:52;17.07;;;11.53;;
4986;SDS011;12674;51.500;7.552;2024-01-07T06:26:55;17.20;;;12.80;;
4986;SDS011;12674;51.500;7.552;2024-01-07T06:28:58;19.67;;;13.00;;
4986;SDS011;12674;51.500;7.552;2024-01-07T06:31:02;15.80;;;11.40;;
4986;SDS011;12674;51.500;7.552;2024-01-07T06:33:07;14.73;;;11.77;;
4986;SDS011;12674;51.500;7.552;2024-01-07T06:35:10;15.07;;;11.40;;
4986;SDS011;12674;51.500;7.552;2024-01-07T06:37:12;16.27;;;11.97;;
4986;SDS011;12674;51.500;7.552;2024-01-07T06:39:15;16.83;;;12.57;;
4986;SDS011;12674;51.500;7.552;2024-01-07T06:41:18;20.63;;;13.20;;
4986;SDS011;12674;51.500;7.552;2024-01-07T06:43:21;16.20;;;12.13;;
4986;SDS011;12674;51.500;7.552;2024-01-07T06:45:23;15.57;;;11.80;;
4986;SDS011;12674;51.500;7.552;2024-01-07T06:47:26;15.87;;;12.30;;
4986;SDS011;12674;51.500;7.552;2024-01-07T06:49:31;15.27;;;11.97;;
4986;SDS011;12674;51.500;7.552;2024-01-07T06:51:35;16.63;;;11.47;;
4986;SDS011;12674;51.500;7.552;2024-01-07T06:53:38;15.73;;;11.97;;
4986;SDS011;12674;51.500;7.552;2024-01-07T06:55:41;22.73;;;11.47;;
4986;SDS011;12674;51.500;7.552;2024-01-07T06:57:44;14.83;;;11.40;;
4986;SDS011;12674;51.500;7.552;2024-01-07T06:59:47;15.03;;;10.67;;
4986;SDS011;12674;51.500;7.552;2024-01-07T07:01:50;16.57;;;12.10;;
4986;SDS011;12674;51.500;7.552;2024-01-07T07:03:55;13.17;;;9.63;;
4986;SDS011;12674;51.500;7.552;2024-01-07T07:05:59;14.60;;;9.97;;
4986;SDS011;12674;51.500;7.552;2024-01-07T07:08:03;20.07;;;10.57;;
4986;SDS011;12674;51.500;7.552;2024-01-07T07:10:06;12.60;;;9.97;;
4986;SDS011;12674;51.500;7.552;2024-01-07T07:12:11;13.93;;;9.23;;
4986;SDS011;12674;51.500;7.552;2024-01-07T07:14:15;13.93;;;10.10;;
4986;SDS011;12674;51.500;7.552;2024-01-07T07:16:18;14.50;;;10.87;;
4986;SDS011;12674;51.500;7.552;2024-01-07T07:18:21;10.90;;;9.40;;
4986;SDS011;12674;51.500;7.552;2024-01-07T07:20:24;12.33;;;9.33;;
4986;SDS011;12674;51.500;7.552;2024-01-07T07:22:28;11.70;;;9.80;;
4986;SDS011;12674;51.500;7.552;2024-01-07T07:24:30;11.83;;;9.30;;
4986;SDS011;12674;51.500;7.552;2024-01-07T07:26:33;13.67;;;9.90;;
4986;SDS011;12674;51.500;7.552;2024-01-07T07:28:37;12.07;;;8.77;;
4986;SDS011;12674;51.500;7.552;2024-01-07T07:30:40;11.23;;;9.13;;
4986;SDS011;12674;51.500;7.552;2024-01-07T07:32:42;13.73;;;7.80;;
4986;SDS011;12674;51.500;7.552;2024-01-07T07:34:46;11.03;;;8.37;;
4986;SDS011;12674;51.500;7.552;2024-01-07T07:36:49;9.33;;;8.30;;
4986;SDS011;12674;51.500;7.552;2024-01-07T07:38:54;10.60;;;8.00;;
4986;SDS011;12674;51.500;7.552;2024-01-07T07:40:57;13.60;;;7.37;;
4986;SDS011;12674;51.500;7.552;2024-01-07T07:43:01;9.27;;;7.83;;
4986;SDS011;12674;51.500;7.552;2024-01-07T07:45:04;7.03;;;6.30;;
4986;SDS011;12674;51.500;7.552;2024-01-07T07:47:08;8.93;;;6.83;;
4986;SDS011;12674;51.500;7.552;2024-01-07T07:49:13;10.63;;;6.93;;
4986;SDS011;12674;51.500;7.552;2024-01-07T07:51:16;7.20;;;6.50;;
4986;SDS011;12674;51.500;7.552;2024-01-07T07:53:19;7.73;;;6.53;;
4986;SDS011;12674;51.500;7.552;2024-01-07T07:55:24;9.53;;;6.90;;
4986;SDS011;12674;51.500;7.552;2024-01-07T07:57:28;13.47;;;8.00;;
4986;SDS011;12674;51.500;7.552;2024-01-07T07:59:31;8.80;;;6.90;;
4986;SDS011;12674;51.500;7.552;2024-01-07T08:01:33;10.07;;;8.10;;
4986;SDS011;12674;51.500;7.552;2024-01-07T08:03:36;10.67;;;7.87;;
4986;SDS011;12674;51.500;7.552;2024-01-07T08:05:38;12.87;;;8.23;;
4986;SDS011;12674;51.500;7.552;2024-01-07T08:07:43;10.60;;;8.23;;
4986;SDS011;12674;51.500;7.552;2024-01-07T08:09:46;10.23;;;8.40;;
4986;SDS011;12674;51.500;7.552;2024-01-07T08:11:51;10.20;;;8.07;;
4986;SDS011;12674;51.500;7.552;2024-01-07T08:13:54;12.90;;;9.90;;
4986;SDS011;12674;51.500;7.552;2024-01-07T08:15:57;16.57;;;9.20;;
4986;SDS011;12674;51.500;7.552;2024-01-07T08:18:00;13.33;;;9.77;;
4986;SDS011;12674;51.500;7.552;2024-01-07T08:20:04;13.77;;;10.40;;
4986;SDS011;12674;51.500;7.552;2024-01-07T08:22:08;13.00;;;9.67;;
4986;SDS011;12674;51.500;7.552;2024-01-07T08:24:11;12.73;;;9.70;;
4986;SDS011;12674;51.500;7.552;2024-01-07T08:26:17;14.70;;;9.97;;
4986;SDS011;12674;51.500;7.552;2024-01-07T08:28:22;13.10;;;10.30;;
4986;SDS011;12674;51.500;7.552;2024-01-07T08:30:25;15.83;;;10.30;;
4986;SDS011;12674;51.500;7.552;2024-01-07T08:32:28;12.57;;;9.47;;
4986;SDS011;12674;51.500;7.552;2024-01-07T08:34:31;17.43;;;10.80;;
4986;SDS011;12674;51.500;7.552;2024-01-07T08:36:34;17.77;;;10.90;;
4986;SDS011;12674;51.500;7.552;2024-01-07T08:38:37;13.37;;;9.83;;
4986;SDS011;12674;51.500;7.552;2024-01-07T08:40:41;10.33;;;9.13;;
4986;SDS011;12674;51.500;7.552;2024-01-07T08:42:44;14.00;;;9.57;;
4986;SDS011;12674;51.500;7.552;2024-01-07T08:44:48;11.07;;;8.33;;
4986;SDS011;12674;51.500;7.552;2024-01-07T08:46:51;14.60;;;9.50;;
4986;SDS011;12674;51.500;7.552;2024-01-07T08:48:54;13.43;;;8.87;;
4986;SDS011;12674;51.500;7.552;2024-01-07T08:50:58;13.90;;;9.50;;
4986;SDS011;12674;51.500;7.552;2024-01-07T08:53:01;11.53;;;9.20;;
4986;SDS011;12674;51.500;7.552;2024-01-07T08:55:07;13.73;;;9.80;;
4986;SDS011;12674;51.500;7.552;2024-01-07T08:57:11;12.73;;;8.80;;
4986;SDS011;12674;51.500;7.552;2024-01-07T08:59:14;10.60;;;8.40;;
4986;SDS011;12674;51.500;7.552;2024-01-07T09:01:19;10.60;;;7.33;;
4986;SDS011;12674;51.500;7.552;2024-01-07T09:03:22;9.67;;;6.30;;
4986;SDS011;12674;51.500;7.552;2024-01-07T09:05:25;8.40;;;6.70;;
4986;SDS011;12674;51.500;7.552;2024-01-07T09:07:28;12.00;;;8.60;;
4986;SDS011;12674;51.500;7.552;2024-01-07T09:09:33;7.60;;;6.60;;
4986;SDS011;12674;51.500;7.552;2024-01-07T09:11:35;8.20;;;6.10;;
4986;SDS011;12674;51.500;7.552;2024-01-07T09:13:39;9.07;;;6.30;;
4986;SDS011;12674;51.500;7.552;2024-01-07T09:15:45;7.53;;;6.33;;
4986;SDS011;12674;51.500;7.552;2024-01-07T09:17:49;7.07;;;6.37;;
4986;SDS011;12674;51.500;7.552;2024-01-07T09:19:52;9.63;;;6.37;;
4986;SDS011;12674;51.500;7.552;2024-01-07T09:21:57;9.10;;;7.00;;
4986;SDS011;12674;51.500;7.552;2024-01-07T09:24:00;12.07;;;7.10;;
4986;SDS011;12674;51.500;7.552;2024-01-07T09:26:03;9.00;;;6.90;;
4986;SDS011;12674;51.500;7.552;2024-01-07T09:28:07;8.80;;;6.80;;
4986;SDS011;12674;51.500;7.552;2024-01-07T09:30:11;9.00;;;6.43;;
4986;SDS011;12674;51.500;7.552;2024-01-07T09:32:16;11.20;;;6.50;;
4986;SDS011;12674;51.500;7.552;2024-01-07T09:34:20;10.70;;;7.30;;
4986;SDS011;12674;51.500;7.552;2024-01-07T09:36:24;9.30;;;5.50;;
4986;SDS011;12674;51.500;7.552;2024-01-07T09:38:31;9.33;;;5.97;;
4986;SDS011;12674;51.500;7.552;2024-01-07T09:40:34;11.40;;;6.27;;
4986;SDS011;12674;51.500;7.552;2024-01-07T09:42:37;7.10;;;5.90;;
4986;SDS011;12674;51.500;7.552;2024-01-07T09:44:40;8.33;;;5.83;;
4986;SDS011;12674;51.500;7.552;2024-01-07T09:46:44;11.07;;;6.47;;
4986;SDS011;12674;51.500;7.552;2024-01-07T09:48:51;11.87;;;5.87;;
4986;SDS011;12674;51.500;7.552;2024-01-07T09:51:00;8.07;;;5.77;;
4986;SDS011;12674;51.500;7.552;2024-01-07T09:53:03;9.00;;;5.50;;
4986;SDS011;12674;51.500;7.552;2024-01-07T09:55:07;8.63;;;4.90;;
4986;SDS011;12674;51.500;7.552;2024-01-07T09:57:12;7.33;;;4.93;;
4986;SDS011;12674;51.500;7.552;2024-01-07T09:59:15;8.17;;;4.97;;
4986;SDS011;12674;51.500;7.552;2024-01-07T10:01:18;8.70;;;4.50;;
4986;SDS011;12674;51.500;7.552;2024-01-07T10:03:21;7.70;;;4.67;;
4986;SDS011;12674;51.500;7.552;2024-01-07T10:05:24;7.10;;;4.40;;
4986;SDS011;12674;51.500;7.552;2024-01-07T10:07:30;7.77;;;5.33;;
4986;SDS011;12674;51.500;7.552;2024-01-07T10:09:34;6.70;;;4.53;;
4986;SDS011;12674;51.500;7.552;2024-01-07T10:11:37;10.00;;;6.13;;
4986;SDS011;12674;51.500;7.552;2024-01-07T10:13:41;7.70;;;5.40;;
4986;SDS011;12674;51.500;7.552;2024-01-07T10:15:44;11.23;;;5.30;;
4986;SDS011;12674;51.500;7.552;2024-01-07T10:17:47;6.13;;;5.07;;
4986;SDS011;12674;51.500;7.552;2024-01-07T10:19:51;5.57;;;4.17;;
4986;SDS011;12674;51.500;7.552;2024-01-07T10:22:00;5.27;;;4.27;;
4986;SDS011;12674;51.500;7.552;2024-01-07T10:24:08;7.20;;;4.97;;
4986;SDS011;12674;51.500;7.552;2024-01-07T10:26:13;5.80;;;3.70;;
4986;SDS011;12674;51.500;7.552;2024-01-07T10:28:28;4.73;;;3.43;;
4986;SDS011;12674;51.500;7.552;2024-01-07T10:30:31;11.30;;;5.00;;
4986;SDS011;12674;51.500;7.552;2024-01-07T10:32:35;8.37;;;5.20;;
4986;SDS011;12674;51.500;7.552;2024-01-07T10:34:41;4.73;;;3.60;;
4986;SDS011;12674;51.500;7.552;2024-01-07T10:36:49;9.20;;;3.87;;
4986;SDS011;12674;51.500;7.552;2024-01-07T10:38:53;6.13;;;3.77;;
4986;SDS011;12674;51.500;7.552;2024-01-07T10:40:58;4.00;;;3.47;;
4986;SDS011;12674;51.500;7.552;2024-01-07T10:43:02;6.20;;;3.47;;
4986;SDS011;12674;51.500;7.552;2024-01-07T10:45:06;4.90;;;3.77;;
4986;SDS011;12674;51.500;7.552;2024-01-07T10:47:09;5.37;;;4.17;;
4986;SDS011;12674;51.500;7.552;2024-01-07T10:49:16;5.10;;;3.83;;
4986;SDS011;12674;51.500;7.552;2024-01-07T10:51:23;4.27;;;3.87;;
4986;SDS011;12674;51.500;7.552;2024-01-07T10:53:28;3.67;;;3.27;;
4986;SDS011;12674;51.500;7.552;2024-01-07T10:55:35;5.93;;;3.47;;
4986;SDS011;12674;51.500;7.552;2024-01-07T10:57:44;5.07;;;3.47;;
4986;SDS011;12674;51.500;7.552;2024-01-07T10:59:49;8.20;;;3.30;;
4986;SDS011;12674;51.500;7.552;2024-01-07T11:01:55;3.80;;;2.90;;
4986;SDS011;12674;51.500;7.552;2024-01-07T11:04:04;4.43;;;2.93;;
4986;SDS011;12674;51.500;7.552;2024-01-07T11:06:13;4.53;;;3.07;;
4986;SDS011;12674;51.500;7.552;2024-01-07T11:08:19;5.60;;;3.90;;
4986;SDS011;12674;51.500;7.552;2024-01-07T11:10:26;7.90;;;3.60;;
4986;SDS011;12674;51.500;7.552;2024-01-07T11:12:44;7.63;;;4.33;;
4986;SDS011;12674;51.500;7.552;2024-01-07T11:14:56;6.07;;;3.77;;
4986;SDS011;12674;51.500;7.552;2024-01-07T11:17:00;6.07;;;3.73;;
4986;SDS011;12674;51.500;7.552;2024-01-07T11:19:04;5.87;;;4.33;;
4986;SDS011;12674;51.500;7.552;2024-01-07T11:21:08;8.83;;;4.57;;
4986;SDS011;12674;51.500;7.552;2024-01-07T11:23:26;4.87;;;3.43;;
4986;SDS011;12674;51.500;7.552;2024-01-07T11:25:30;3.93;;;3.53;;
4986;SDS011;12674;51.500;7.552;2024-01-07T11:27:34;5.73;;;4.03;;
4986;SDS011;12674;51.500;7.552;2024-01-07T11:29:39;5.33;;;3.67;;
4986;SDS011;12674;51.500;7.552;2024-01-07T11:31:43;5.77;;;3.07;;
4986;SDS011;12674;51.500;7.552;2024-01-07T11:33:49;6.13;;;3.97;;
4986;SDS011;12674;51.500;7.552;2024-01-07T11:35:53;4.30;;;3.70;;
4986;SDS011;12674;51.500;7.552;2024-01-07T11:37:57;6.10;;;3.93;;
4986;SDS011;12674;51.500;7.552;2024-01-07T11:40:06;6.13;;;4.13;;
4986;SDS011;12674;51.500;7.552;2024-01-07T11:42:10;6.50;;;5.00;;
4986;SDS011;12674;51.500;7.552;2024-01-07T11:44:14;4.73;;;3.90;;
4986;SDS011;12674;51.500;7.552;2024-01-07T11:46:21;4.63;;;3.60;;
4986;SDS011;12674;51.500;7.552;2024-01-07T11:48:24;4.70;;;4.03;;
4986;SDS011;12674;51.500;7.552;2024-01-07T11:50:28;3.93;;;3.30;;
4986;SDS011;12674;51.500;7.552;2024-01-07T11:52:32;8.80;;;4.10;;
4986;SDS011;12674;51.500;7.552;2024-01-07T11:54:38;3.70;;;3.40;;
4986;SDS011;12674;51.500;7.552;2024-01-07T11:56:42;5.70;;;3.57;;
4986;SDS011;12674;51.500;7.552;2024-01-07T11:58:44;3.03;;;2.70;;
4986;SDS011;12674;51.500;7.552;2024-01-07T12:00:47;3.87;;;3.03;;
4986;SDS011;12674;51.500;7.552;2024-01-07T12:02:52;3.20;;;2.80;;
4986;SDS011;12674;51.500;7.552;2024-01-07T12:04:55;6.10;;;2.83;;
4986;SDS011;12674;51.500;7.552;2024-01-07T12:06:59;5.50;;;2.80;;
4986;SDS011;12674;51.500;7.552;2024-01-07T12:09:05;6.40;;;2.90;;
4986;SDS011;12674;51.500;7.552;2024-01-07T12:11:09;3.40;;;2.60;;
4986;SDS011;12674;51.500;7.552;2024-01-07T12:13:15;3.03;;;2.67;;
4986;SDS011;12674;51.500;7.552;2024-01-07T12:15:19;2.90;;;2.30;;
4986;SDS011;12674;51.500;7.552;2024-01-07T12:17:23;4.23;;;3.17;;
4986;SDS011;12674;51.500;7.552;2024-01-07T12:19:28;3.63;;;2.93;;
4986;SDS011;12674;51.500;7.552;2024-01-07T12:21:32;7.10;;;3.50;;
4986;SDS011;12674;51.500;7.552;2024-01-07T12:23:35;3.83;;;2.63;;